sensor_id;sensor_type;location;lat;lon;timestamp;P1;durP1;ratioP1;P2;durP2;ratioP2
63320;SDS011;49449;48.800;9.534;2022-08-03T00:02:18;2.47;;;2.17;;
63320;SDS011;49449;48.800;9.534;2022-08-03T00:04:47;3.38;;;2.72;;
63320;SDS011;49449;48.800;9.534;2022-08-03T00:07:15;3.75;;;2.47;;
63320;SDS011;49449;48.800;9.534;2022-08-03T00:09:43;2.35;;;2.20;;
63320;SDS011;49449;48.800;9.534;2022-08-03T00:12:13;2.80;;;2.60;;
63320;SDS011;49449;48.800;9.534;2022-08-03T00:14:41;2.78;;;2.58;;
63320;SDS011;49449;48.800;9.534;2022-08-03T00:17:09;2.83;;;2.63;;
63320;SDS011;49449;48.800;9.534;2022-08-03T00:19:37;2.85;;;2.63;;
63320;SDS011;49449;48.800;9.534;2022-08-03T00:22:06;3.00;;;2.75;;
63320;SDS011;49449;48.800;9.534;2022-08-03T00:24:34;3.60;;;2.88;;
63320;SDS011;49449;48.800;9.534;2022-08-03T00:27:02;2.45;;;2.25;;
63320;SDS011;49449;48.800;9.534;2022-08-03T00:29:30;3.00;;;2.80;;
63320;SDS011;49449;48.800;9.534;2022-08-03T00:31:58;3.33;;;2.72;;
63320;SDS011;49449;48.800;9.534;2022-08-03T00:34:28;4.50;;;2.28;;
63320;SDS011;49449;48.800;9.534;2022-08-03T00:36:57;2.70;;;2.50;;
63320;SDS011;49449;48.800;9.534;2022-08-03T00:39:26;2.63;;;2.40;;
63320;SDS011;49449;48.800;9.534;2022-08-03T00:42:00;2.58;;;2.10;;
63320;SDS011;49449;48.800;9.534;2022-08-03T00:44:28;2.90;;;2.70;;
63320;SDS011;49449;48.800;9.534;2022-08-03T00:46:56;3.63;;;2.67;;
63320;SDS011;49449;48.800;9.534;2022-08-03T00:49:24;2.83;;;2.13;;
63320;SDS011;49449;48.800;9.534;2022-08-03T00:51:52;3.00;;;2.80;;
63320;SDS011;49449;48.800;9.534;2022-08-03T00:54:20;2.53;;;2.33;;
63320;SDS011;49449;48.800;9.534;2022-08-03T00:56:50;2.15;;;2.05;;
63320;SDS011;49449;48.800;9.534;2022-08-03T00:59:19;2.90;;;2.70;;
63320;SDS011;49449;48.800;9.534;2022-08-03T01:01:49;2.80;;;2.60;;
63320;SDS011;49449;48.800;9.534;2022-08-03T01:04:17;2.65;;;2.08;;
63320;SDS011;49449;48.800;9.534;2022-08-03T01:06:48;3.47;;;3.03;;
63320;SDS011;49449;48.800;9.534;2022-08-03T01:09:20;2.80;;;2.60;;
63320;SDS011;49449;48.800;9.534;2022-08-03T01:12:02;3.30;;;3.10;;
63320;SDS011;49449;48.800;9.534;2022-08-03T01:14:37;2.70;;;2.50;;
63320;SDS011;49449;48.800;9.534;2022-08-03T01:17:09;3.00;;;2.80;;
63320;SDS011;49449;48.800;9.534;2022-08-03T01:19:41;3.15;;;2.88;;
63320;SDS011;49449;48.800;9.534;2022-08-03T01:22:16;2.67;;;2.45;;
63320;SDS011;49449;48.800;9.534;2022-08-03T01:25:05;3.33;;;3.03;;
63320;SDS011;49449;48.800;9.534;2022-08-03T01:27:45;3.10;;;2.85;;
63320;SDS011;49449;48.800;9.534;2022-08-03T01:30:22;2.80;;;2.60;;
63320;SDS011;49449;48.800;9.534;2022-08-03T01:32:57;3.25;;;3.03;;
63320;SDS011;49449;48.800;9.534;2022-08-03T01:35:31;3.08;;;2.78;;
63320;SDS011;49449;48.800;9.534;2022-08-03T01:38:03;3.53;;;2.85;;
63320;SDS011;49449;48.800;9.534;2022-08-03T01:40:36;3.17;;;2.30;;
63320;SDS011;49449;48.800;9.534;2022-08-03T01:43:08;3.72;;;2.80;;
63320;SDS011;49449;48.800;9.534;2022-08-03T01:45:40;3.20;;;2.90;;
63320;SDS011;49449;48.800;9.534;2022-08-03T01:48:10;3.05;;;2.85;;
63320;SDS011;49449;48.800;9.534;2022-08-03T01:50:42;2.78;;;2.58;;
63320;SDS011;49449;48.800;9.534;2022-08-03T01:53:12;3.40;;;3.10;;
63320;SDS011;49449;48.800;9.534;2022-08-03T01:55:41;2.97;;;2.78;;
63320;SDS011;49449;48.800;9.534;2022-08-03T01:58:10;2.67;;;2.47;;
63320;SDS011;49449;48.800;9.534;2022-08-03T02:00:42;2.88;;;2.67;;
63320;SDS011;49449;48.800;9.534;2022-08-03T02:03:12;3.22;;;2.92;;
63320;SDS011;49449;48.800;9.534;2022-08-03T02:05:42;2.65;;;2.40;;
63320;SDS011;49449;48.800;9.534;2022-08-03T02:08:12;3.10;;;2.90;;
63320;SDS011;49449;48.800;9.534;2022-08-03T02:10:43;3.83;;;2.70;;
63320;SDS011;49449;48.800;9.534;2022-08-03T02:13:13;3.00;;;2.67;;
63320;SDS011;49449;48.800;9.534;2022-08-03T02:15:44;3.80;;;2.90;;
63320;SDS011;49449;48.800;9.534;2022-08-03T02:18:13;2.88;;;2.67;;
63320;SDS011;49449;48.800;9.534;2022-08-03T02:20:42;3.25;;;2.95;;
63320;SDS011;49449;48.800;9.534;2022-08-03T02:23:11;2.90;;;2.58;;
63320;SDS011;49449;48.800;9.534;2022-08-03T02:25:42;3.08;;;2.88;;
63320;SDS011;49449;48.800;9.534;2022-08-03T02:28:14;3.28;;;2.90;;
63320;SDS011;49449;48.800;9.534;2022-08-03T02:30:49;2.90;;;2.70;;
63320;SDS011;49449;48.800;9.534;2022-08-03T02:33:23;3.42;;;3.20;;
63320;SDS011;49449;48.800;9.534;2022-08-03T02:35:53;3.83;;;3.05;;
63320;SDS011;49449;48.800;9.534;2022-08-03T02:38:25;3.53;;;2.90;;
63320;SDS011;49449;48.800;9.534;2022-08-03T02:40:57;3.13;;;2.80;;
63320;SDS011;49449;48.800;9.534;2022-08-03T02:43:27;3.05;;;2.85;;
63320;SDS011;49449;48.800;9.534;2022-08-03T02:45:59;3.17;;;2.83;;
63320;SDS011;49449;48.800;9.534;2022-08-03T02:48:27;2.65;;;2.45;;
63320;SDS011;49449;48.800;9.534;2022-08-03T02:50:59;2.88;;;2.67;;
63320;SDS011;49449;48.800;9.534;2022-08-03T02:53:30;2.78;;;2.58;;
63320;SDS011;49449;48.800;9.534;2022-08-03T02:55:59;3.58;;;3.28;;
63320;SDS011;49449;48.800;9.534;2022-08-03T02:58:30;3.20;;;3.00;;
63320;SDS011;49449;48.800;9.534;2022-08-03T03:01:00;3.95;;;3.20;;
63320;SDS011;49449;48.800;9.534;2022-08-03T03:05:57;3.75;;;3.40;;
63320;SDS011;49449;48.800;9.534;2022-08-03T03:08:25;3.78;;;2.83;;
63320;SDS011;49449;48.800;9.534;2022-08-03T03:10:54;3.25;;;2.95;;
63320;SDS011;49449;48.800;9.534;2022-08-03T03:13:27;3.70;;;3.40;;
63320;SDS011;49449;48.800;9.534;2022-08-03T03:16:00;3.00;;;2.80;;
63320;SDS011;49449;48.800;9.534;2022-08-03T03:18:32;3.92;;;3.05;;
63320;SDS011;49449;48.800;9.534;2022-08-03T03:21:04;3.80;;;3.00;;
63320;SDS011;49449;48.800;9.534;2022-08-03T03:23:37;3.10;;;2.80;;
63320;SDS011;49449;48.800;9.534;2022-08-03T03:26:07;3.45;;;3.15;;
63320;SDS011;49449;48.800;9.534;2022-08-03T03:28:35;3.30;;;3.00;;
63320;SDS011;49449;48.800;9.534;2022-08-03T03:31:08;3.28;;;3.08;;
63320;SDS011;49449;48.800;9.534;2022-08-03T03:33:37;3.10;;;2.90;;
63320;SDS011;49449;48.800;9.534;2022-08-03T03:36:06;5.10;;;3.10;;
63320;SDS011;49449;48.800;9.534;2022-08-03T03:38:34;3.63;;;3.33;;
63320;SDS011;49449;48.800;9.534;2022-08-03T03:41:03;3.60;;;3.30;;
63320;SDS011;49449;48.800;9.534;2022-08-03T03:43:32;3.63;;;3.28;;
63320;SDS011;49449;48.800;9.534;2022-08-03T03:46:01;4.78;;;3.28;;
63320;SDS011;49449;48.800;9.534;2022-08-03T03:48:32;3.20;;;3.00;;
63320;SDS011;49449;48.800;9.534;2022-08-03T03:51:01;3.35;;;3.10;;
63320;SDS011;49449;48.800;9.534;2022-08-03T03:53:30;3.85;;;3.55;;
63320;SDS011;49449;48.800;9.534;2022-08-03T03:55:58;4.05;;;3.15;;
63320;SDS011;49449;48.800;9.534;2022-08-03T03:58:29;3.40;;;3.10;;
63320;SDS011;49449;48.800;9.534;2022-08-03T04:00:58;3.38;;;3.00;;
63320;SDS011;49449;48.800;9.534;2022-08-03T04:03:27;3.67;;;3.38;;
63320;SDS011;49449;48.800;9.534;2022-08-03T04:06:00;3.88;;;3.30;;
63320;SDS011;49449;48.800;9.534;2022-08-03T04:08:46;3.38;;;3.17;;
63320;SDS011;49449;48.800;9.534;2022-08-03T04:11:33;3.30;;;3.10;;
63320;SDS011;49449;48.800;9.534;2022-08-03T04:14:05;3.60;;;3.30;;
63320;SDS011;49449;48.800;9.534;2022-08-03T04:16:38;2.95;;;2.75;;
63320;SDS011;49449;48.800;9.534;2022-08-03T04:19:10;4.22;;;3.00;;
63320;SDS011;49449;48.800;9.534;2022-08-03T04:21:47;3.67;;;3.38;;
63320;SDS011;49449;48.800;9.534;2022-08-03T04:24:17;4.25;;;3.85;;
63320;SDS011;49449;48.800;9.534;2022-08-03T04:26:48;4.40;;;4.00;;
63320;SDS011;49449;48.800;9.534;2022-08-03T04:29:18;3.90;;;3.30;;
63320;SDS011;49449;48.800;9.534;2022-08-03T04:31:47;4.18;;;3.03;;
63320;SDS011;49449;48.800;9.534;2022-08-03T04:34:19;3.45;;;3.15;;
63320;SDS011;49449;48.800;9.534;2022-08-03T04:36:49;4.43;;;3.45;;
63320;SDS011;49449;48.800;9.534;2022-08-03T04:39:25;3.17;;;2.90;;
63320;SDS011;49449;48.800;9.534;2022-08-03T04:42:03;4.05;;;3.08;;
63320;SDS011;49449;48.800;9.534;2022-08-03T04:44:34;3.35;;;3.05;;
63320;SDS011;49449;48.800;9.534;2022-08-03T04:47:04;3.17;;;2.97;;
63320;SDS011;49449;48.800;9.534;2022-08-03T04:49:33;3.65;;;3.15;;
63320;SDS011;49449;48.800;9.534;2022-08-03T04:52:05;3.83;;;3.33;;
63320;SDS011;49449;48.800;9.534;2022-08-03T04:54:38;3.83;;;3.53;;
63320;SDS011;49449;48.800;9.534;2022-08-03T04:57:07;4.00;;;3.53;;
63320;SDS011;49449;48.800;9.534;2022-08-03T04:59:36;4.15;;;3.80;;
63320;SDS011;49449;48.800;9.534;2022-08-03T05:02:05;4.10;;;3.70;;
63320;SDS011;49449;48.800;9.534;2022-08-03T05:04:33;3.55;;;3.25;;
63320;SDS011;49449;48.800;9.534;2022-08-03T05:07:07;3.35;;;3.13;;
63320;SDS011;49449;48.800;9.534;2022-08-03T05:09:35;3.67;;;3.28;;
63320;SDS011;49449;48.800;9.534;2022-08-03T05:12:04;5.22;;;3.65;;
63320;SDS011;49449;48.800;9.534;2022-08-03T05:14:36;4.20;;;3.53;;
63320;SDS011;49449;48.800;9.534;2022-08-03T05:17:05;3.55;;;2.97;;
63320;SDS011;49449;48.800;9.534;2022-08-03T05:19:33;4.15;;;3.35;;
63320;SDS011;49449;48.800;9.534;2022-08-03T05:22:01;3.90;;;3.60;;
63320;SDS011;49449;48.800;9.534;2022-08-03T05:24:30;3.45;;;3.15;;
63320;SDS011;49449;48.800;9.534;2022-08-03T05:26:58;5.05;;;3.10;;
63320;SDS011;49449;48.800;9.534;2022-08-03T05:29:28;3.20;;;2.90;;
63320;SDS011;49449;48.800;9.534;2022-08-03T05:31:56;3.90;;;3.10;;
63320;SDS011;49449;48.800;9.534;2022-08-03T05:34:27;3.80;;;3.50;;
63320;SDS011;49449;48.800;9.534;2022-08-03T05:36:58;4.03;;;3.50;;
63320;SDS011;49449;48.800;9.534;2022-08-03T05:39:26;4.45;;;3.42;;
63320;SDS011;49449;48.800;9.534;2022-08-03T05:41:55;3.58;;;3.28;;
63320;SDS011;49449;48.800;9.534;2022-08-03T05:44:26;3.05;;;2.75;;
63320;SDS011;49449;48.800;9.534;2022-08-03T05:46:54;3.70;;;3.40;;
63320;SDS011;49449;48.800;9.534;2022-08-03T05:49:21;4.00;;;3.60;;
63320;SDS011;49449;48.800;9.534;2022-08-03T05:51:50;3.92;;;3.55;;
63320;SDS011;49449;48.800;9.534;2022-08-03T05:54:18;3.63;;;3.33;;
63320;SDS011;49449;48.800;9.534;2022-08-03T05:56:45;3.92;;;3.50;;
63320;SDS011;49449;48.800;9.534;2022-08-03T05:59:16;3.88;;;3.58;;
63320;SDS011;49449;48.800;9.534;2022-08-03T06:02:02;4.03;;;3.72;;
63320;SDS011;49449;48.800;9.534;2022-08-03T06:04:29;3.00;;;2.80;;
63320;SDS011;49449;48.800;9.534;2022-08-03T06:06:57;3.40;;;3.10;;
63320;SDS011;49449;48.800;9.534;2022-08-03T06:09:25;3.58;;;3.13;;
63320;SDS011;49449;48.800;9.534;2022-08-03T06:11:55;4.40;;;3.28;;
63320;SDS011;49449;48.800;9.534;2022-08-03T06:14:26;3.50;;;3.10;;
63320;SDS011;49449;48.800;9.534;2022-08-03T06:16:54;4.28;;;3.65;;
63320;SDS011;49449;48.800;9.534;2022-08-03T06:19:22;3.80;;;3.45;;
63320;SDS011;49449;48.800;9.534;2022-08-03T06:21:50;3.55;;;3.25;;
63320;SDS011;49449;48.800;9.534;2022-08-03T06:24:18;3.95;;;3.20;;
63320;SDS011;49449;48.800;9.534;2022-08-03T06:26:46;3.58;;;3.28;;
63320;SDS011;49449;48.800;9.534;2022-08-03T06:29:14;3.83;;;3.53;;
63320;SDS011;49449;48.800;9.534;2022-08-03T06:31:43;3.78;;;3.47;;
63320;SDS011;49449;48.800;9.534;2022-08-03T06:34:11;3.75;;;3.35;;
63320;SDS011;49449;48.800;9.534;2022-08-03T06:36:39;3.53;;;3.10;;
63320;SDS011;49449;48.800;9.534;2022-08-03T06:39:07;4.38;;;3.90;;
63320;SDS011;49449;48.800;9.534;2022-08-03T06:41:35;3.85;;;3.25;;
63320;SDS011;49449;48.800;9.534;2022-08-03T06:44:03;3.75;;;3.22;;
63320;SDS011;49449;48.800;9.534;2022-08-03T06:46:31;3.50;;;3.20;;
63320;SDS011;49449;48.800;9.534;2022-08-03T06:49:02;4.10;;;3.70;;
63320;SDS011;49449;48.800;9.534;2022-08-03T06:51:30;5.40;;;4.90;;
63320;SDS011;49449;48.800;9.534;2022-08-03T06:53:58;4.00;;;3.70;;
63320;SDS011;49449;48.800;9.534;2022-08-03T06:56:26;3.60;;;3.30;;
63320;SDS011;49449;48.800;9.534;2022-08-03T06:58:54;4.65;;;3.65;;
63320;SDS011;49449;48.800;9.534;2022-08-03T07:01:22;4.75;;;3.55;;
63320;SDS011;49449;48.800;9.534;2022-08-03T07:03:50;3.40;;;3.10;;
63320;SDS011;49449;48.800;9.534;2022-08-03T07:06:21;3.60;;;3.10;;
63320;SDS011;49449;48.800;9.534;2022-08-03T07:08:50;3.45;;;3.15;;
63320;SDS011;49449;48.800;9.534;2022-08-03T07:11:20;3.70;;;3.28;;
63320;SDS011;49449;48.800;9.534;2022-08-03T07:13:49;4.18;;;3.50;;
63320;SDS011;49449;48.800;9.534;2022-08-03T07:16:17;3.45;;;3.15;;
63320;SDS011;49449;48.800;9.534;2022-08-03T07:18:46;3.72;;;2.85;;
63320;SDS011;49449;48.800;9.534;2022-08-03T07:21:14;3.40;;;3.10;;
63320;SDS011;49449;48.800;9.534;2022-08-03T07:23:45;3.75;;;3.45;;
63320;SDS011;49449;48.800;9.534;2022-08-03T07:26:13;4.05;;;3.30;;
63320;SDS011;49449;48.800;9.534;2022-08-03T07:28:40;4.00;;;3.13;;
63320;SDS011;49449;48.800;9.534;2022-08-03T07:31:08;3.83;;;3.53;;
63320;SDS011;49449;48.800;9.534;2022-08-03T07:33:36;3.97;;;3.30;;
63320;SDS011;49449;48.800;9.534;2022-08-03T07:36:04;3.55;;;3.08;;
63320;SDS011;49449;48.800;9.534;2022-08-03T07:38:33;3.10;;;2.85;;
63320;SDS011;49449;48.800;9.534;2022-08-03T07:41:03;3.83;;;3.03;;
63320;SDS011;49449;48.800;9.534;2022-08-03T07:43:31;3.10;;;2.80;;
63320;SDS011;49449;48.800;9.534;2022-08-03T07:46:01;3.20;;;2.50;;
63320;SDS011;49449;48.800;9.534;2022-08-03T07:48:29;4.15;;;2.80;;
63320;SDS011;49449;48.800;9.534;2022-08-03T07:50:57;3.90;;;2.97;;
63320;SDS011;49449;48.800;9.534;2022-08-03T07:53:25;3.28;;;2.97;;
63320;SDS011;49449;48.800;9.534;2022-08-03T07:55:53;3.05;;;2.85;;
63320;SDS011;49449;48.800;9.534;2022-08-03T07:58:23;3.35;;;3.08;;
63320;SDS011;49449;48.800;9.534;2022-08-03T08:00:51;3.13;;;2.83;;
63320;SDS011;49449;48.800;9.534;2022-08-03T08:03:19;3.20;;;2.90;;
63320;SDS011;49449;48.800;9.534;2022-08-03T08:05:47;2.83;;;2.63;;
63320;SDS011;49449;48.800;9.534;2022-08-03T08:08:15;3.17;;;2.88;;
63320;SDS011;49449;48.800;9.534;2022-08-03T08:10:43;2.80;;;2.47;;
63320;SDS011;49449;48.800;9.534;2022-08-03T08:13:14;2.85;;;2.63;;
63320;SDS011;49449;48.800;9.534;2022-08-03T08:15:43;3.30;;;3.00;;
63320;SDS011;49449;48.800;9.534;2022-08-03T08:18:11;4.47;;;2.67;;
63320;SDS011;49449;48.800;9.534;2022-08-03T08:20:39;2.85;;;2.47;;
63320;SDS011;49449;48.800;9.534;2022-08-03T08:23:09;2.92;;;2.70;;
63320;SDS011;49449;48.800;9.534;2022-08-03T08:25:37;1.98;;;1.88;;
63320;SDS011;49449;48.800;9.534;2022-08-03T08:28:06;3.25;;;2.40;;
63320;SDS011;49449;48.800;9.534;2022-08-03T08:30:33;2.67;;;2.33;;
63320;SDS011;49449;48.800;9.534;2022-08-03T08:33:03;2.55;;;1.75;;
63320;SDS011;49449;48.800;9.534;2022-08-03T08:35:31;1.80;;;1.50;;
63320;SDS011;49449;48.800;9.534;2022-08-03T08:37:58;1.80;;;1.70;;
63320;SDS011;49449;48.800;9.534;2022-08-03T08:40:29;1.40;;;1.30;;
63320;SDS011;49449;48.800;9.534;2022-08-03T08:42:57;1.70;;;1.60;;
63320;SDS011;49449;48.800;9.534;2022-08-03T08:45:25;1.70;;;1.60;;
63320;SDS011;49449;48.800;9.534;2022-08-03T08:47:56;1.70;;;1.60;;
63320;SDS011;49449;48.800;9.534;2022-08-03T08:50:32;1.50;;;1.50;;
63320;SDS011;49449;48.800;9.534;2022-08-03T08:53:01;1.30;;;1.30;;
63320;SDS011;49449;48.800;9.534;2022-08-03T08:55:29;1.90;;;1.80;;
63320;SDS011;49449;48.800;9.534;2022-08-03T08:58:00;1.60;;;1.50;;
63320;SDS011;49449;48.800;9.534;2022-08-03T09:00:31;1.80;;;1.70;;
63320;SDS011;49449;48.800;9.534;2022-08-03T09:02:59;1.35;;;1.33;;
63320;SDS011;49449;48.800;9.534;2022-08-03T09:05:28;1.98;;;1.45;;
63320;SDS011;49449;48.800;9.534;2022-08-03T09:08:20;1.30;;;1.30;;
63320;SDS011;49449;48.800;9.534;2022-08-03T09:10:49;1.90;;;1.65;;
63320;SDS011;49449;48.800;9.534;2022-08-03T09:13:17;2.15;;;1.40;;
63320;SDS011;49449;48.800;9.534;2022-08-03T09:15:45;1.70;;;1.60;;
63320;SDS011;49449;48.800;9.534;2022-08-03T09:18:24;1.95;;;1.85;;
63320;SDS011;49449;48.800;9.534;2022-08-03T09:20:55;1.63;;;1.52;;
63320;SDS011;49449;48.800;9.534;2022-08-03T09:23:58;1.80;;;1.70;;
63320;SDS011;49449;48.800;9.534;2022-08-03T09:26:29;1.73;;;1.63;;
63320;SDS011;49449;48.800;9.534;2022-08-03T09:29:00;1.60;;;1.50;;
63320;SDS011;49449;48.800;9.534;2022-08-03T09:31:33;2.03;;;1.77;;
63320;SDS011;49449;48.800;9.534;2022-08-03T09:34:02;1.77;;;1.67;;
63320;SDS011;49449;48.800;9.534;2022-08-03T09:36:36;1.60;;;1.50;;
63320;SDS011;49449;48.800;9.534;2022-08-03T09:39:07;1.50;;;1.40;;
63320;SDS011;49449;48.800;9.534;2022-08-03T09:41:37;1.75;;;1.65;;
63320;SDS011;49449;48.800;9.534;2022-08-03T09:46:49;1.83;;;1.73;;
63320;SDS011;49449;48.800;9.534;2022-08-03T09:51:46;1.77;;;1.63;;
63320;SDS011;49449;48.800;9.534;2022-08-03T09:54:25;1.73;;;1.63;;
63320;SDS011;49449;48.800;9.534;2022-08-03T09:56:57;1.90;;;1.80;;
63320;SDS011;49449;48.800;9.534;2022-08-03T09:59:28;1.67;;;1.58;;
63320;SDS011;49449;48.800;9.534;2022-08-03T10:01:58;1.92;;;1.70;;
63320;SDS011;49449;48.800;9.534;2022-08-03T10:04:27;1.70;;;1.60;;
63320;SDS011;49449;48.800;9.534;2022-08-03T10:07:02;1.90;;;1.80;;
63320;SDS011;49449;48.800;9.534;2022-08-03T10:09:33;1.90;;;1.80;;
63320;SDS011;49449;48.800;9.534;2022-08-03T10:12:08;2.15;;;2.05;;
63320;SDS011;49449;48.800;9.534;2022-08-03T10:14:37;1.70;;;1.60;;
63320;SDS011;49449;48.800;9.534;2022-08-03T10:17:07;1.58;;;1.50;;
63320;SDS011;49449;48.800;9.534;2022-08-03T10:19:36;3.25;;;1.90;;
63320;SDS011;49449;48.800;9.534;2022-08-03T10:22:07;2.30;;;2.10;;
63320;SDS011;49449;48.800;9.534;2022-08-03T10:24:48;1.95;;;1.60;;
63320;SDS011;49449;48.800;9.534;2022-08-03T10:27:31;1.88;;;1.70;;
63320;SDS011;49449;48.800;9.534;2022-08-03T10:30:12;2.00;;;1.90;;
63320;SDS011;49449;48.800;9.534;2022-08-03T10:32:51;1.95;;;1.85;;
63320;SDS011;49449;48.800;9.534;2022-08-03T10:35:28;2.17;;;2.05;;
63320;SDS011;49449;48.800;9.534;2022-08-03T10:37:59;2.20;;;2.00;;
63320;SDS011;49449;48.800;9.534;2022-08-03T10:40:32;2.90;;;1.92;;
63320;SDS011;49449;48.800;9.534;2022-08-03T10:43:17;1.63;;;1.52;;
63320;SDS011;49449;48.800;9.534;2022-08-03T10:45:47;1.88;;;1.77;;
63320;SDS011;49449;48.800;9.534;2022-08-03T10:48:16;1.83;;;1.65;;
63320;SDS011;49449;48.800;9.534;2022-08-03T10:50:45;1.92;;;1.83;;
63320;SDS011;49449;48.800;9.534;2022-08-03T10:53:16;2.10;;;2.00;;
63320;SDS011;49449;48.800;9.534;2022-08-03T10:56:03;1.90;;;1.80;;
63320;SDS011;49449;48.800;9.534;2022-08-03T10:58:49;2.00;;;1.90;;
63320;SDS011;49449;48.800;9.534;2022-08-03T11:01:48;2.40;;;2.20;;
63320;SDS011;49449;48.800;9.534;2022-08-03T11:04:18;1.45;;;1.45;;
63320;SDS011;49449;48.800;9.534;2022-08-03T11:07:17;2.05;;;1.88;;
63320;SDS011;49449;48.800;9.534;2022-08-03T11:09:47;1.80;;;1.70;;
63320;SDS011;49449;48.800;9.534;2022-08-03T11:12:21;2.17;;;1.90;;
63320;SDS011;49449;48.800;9.534;2022-08-03T11:14:52;1.90;;;1.80;;
63320;SDS011;49449;48.800;9.534;2022-08-03T11:17:21;1.55;;;1.40;;
63320;SDS011;49449;48.800;9.534;2022-08-03T11:19:52;2.03;;;1.92;;
63320;SDS011;49449;48.800;9.534;2022-08-03T11:22:21;1.92;;;1.70;;
63320;SDS011;49449;48.800;9.534;2022-08-03T11:24:59;1.98;;;1.88;;
63320;SDS011;49449;48.800;9.534;2022-08-03T11:27:31;1.90;;;1.80;;
63320;SDS011;49449;48.800;9.534;2022-08-03T11:30:03;2.28;;;2.10;;
63320;SDS011;49449;48.800;9.534;2022-08-03T11:35:29;2.35;;;1.70;;
63320;SDS011;49449;48.800;9.534;2022-08-03T11:40:45;2.15;;;2.00;;
63320;SDS011;49449;48.800;9.534;2022-08-03T11:46:13;1.95;;;1.85;;
63320;SDS011;49449;48.800;9.534;2022-08-03T11:48:47;1.70;;;1.60;;
63320;SDS011;49449;48.800;9.534;2022-08-03T11:51:21;1.90;;;1.80;;
63320;SDS011;49449;48.800;9.534;2022-08-03T11:53:51;2.60;;;1.98;;
63320;SDS011;49449;48.800;9.534;2022-08-03T11:56:23;1.83;;;1.73;;
63320;SDS011;49449;48.800;9.534;2022-08-03T11:58:51;2.28;;;2.08;;
63320;SDS011;49449;48.800;9.534;2022-08-03T12:01:21;1.92;;;1.80;;
63320;SDS011;49449;48.800;9.534;2022-08-03T12:03:50;2.10;;;2.00;;
63320;SDS011;49449;48.800;9.534;2022-08-03T12:06:18;2.20;;;1.63;;
63320;SDS011;49449;48.800;9.534;2022-08-03T12:08:49;2.10;;;1.88;;
63320;SDS011;49449;48.800;9.534;2022-08-03T12:11:17;2.55;;;2.20;;
63320;SDS011;49449;48.800;9.534;2022-08-03T12:13:48;1.73;;;1.63;;
63320;SDS011;49449;48.800;9.534;2022-08-03T12:16:18;1.70;;;1.60;;
63320;SDS011;49449;48.800;9.534;2022-08-03T12:18:53;2.40;;;1.60;;
63320;SDS011;49449;48.800;9.534;2022-08-03T12:21:23;1.90;;;1.80;;
63320;SDS011;49449;48.800;9.534;2022-08-03T12:26:24;2.22;;;2.10;;
63320;SDS011;49449;48.800;9.534;2022-08-03T12:28:53;2.03;;;1.92;;
63320;SDS011;49449;48.800;9.534;2022-08-03T12:31:22;1.90;;;1.80;;
63320;SDS011;49449;48.800;9.534;2022-08-03T12:33:54;1.80;;;1.70;;
63320;SDS011;49449;48.800;9.534;2022-08-03T12:36:26;1.75;;;1.65;;
63320;SDS011;49449;48.800;9.534;2022-08-03T12:38:57;3.65;;;1.60;;
63320;SDS011;49449;48.800;9.534;2022-08-03T12:41:29;2.20;;;1.70;;
63320;SDS011;49449;48.800;9.534;2022-08-03T12:43:59;2.25;;;1.95;;
63320;SDS011;49449;48.800;9.534;2022-08-03T12:46:29;2.05;;;1.95;;
63320;SDS011;49449;48.800;9.534;2022-08-03T12:49:01;1.95;;;1.85;;
63320;SDS011;49449;48.800;9.534;2022-08-03T12:51:33;1.67;;;1.50;;
63320;SDS011;49449;48.800;9.534;2022-08-03T12:54:03;2.78;;;1.98;;
63320;SDS011;49449;48.800;9.534;2022-08-03T12:56:32;2.15;;;2.05;;
63320;SDS011;49449;48.800;9.534;2022-08-03T13:01:51;3.83;;;2.20;;
63320;SDS011;49449;48.800;9.534;2022-08-03T13:04:25;2.10;;;2.00;;
63320;SDS011;49449;48.800;9.534;2022-08-03T13:06:59;1.77;;;1.67;;
63320;SDS011;49449;48.800;9.534;2022-08-03T13:09:31;1.95;;;1.85;;
63320;SDS011;49449;48.800;9.534;2022-08-03T13:12:09;1.90;;;1.80;;
63320;SDS011;49449;48.800;9.534;2022-08-03T13:14:41;2.00;;;1.77;;
63320;SDS011;49449;48.800;9.534;2022-08-03T13:17:10;2.17;;;2.08;;
63320;SDS011;49449;48.800;9.534;2022-08-03T13:19:39;1.92;;;1.83;;
63320;SDS011;49449;48.800;9.534;2022-08-03T13:22:12;4.35;;;1.65;;
63320;SDS011;49449;48.800;9.534;2022-08-03T13:24:42;2.30;;;2.10;;
63320;SDS011;49449;48.800;9.534;2022-08-03T13:27:10;2.00;;;1.90;;
63320;SDS011;49449;48.800;9.534;2022-08-03T13:29:41;2.03;;;1.92;;
63320;SDS011;49449;48.800;9.534;2022-08-03T13:32:09;1.90;;;1.80;;
63320;SDS011;49449;48.800;9.534;2022-08-03T13:34:37;1.80;;;1.70;;
63320;SDS011;49449;48.800;9.534;2022-08-03T13:37:05;1.60;;;1.50;;
63320;SDS011;49449;48.800;9.534;2022-08-03T13:39:35;2.10;;;2.00;;
63320;SDS011;49449;48.800;9.534;2022-08-03T13:42:07;6.10;;;2.00;;
63320;SDS011;49449;48.800;9.534;2022-08-03T13:44:35;1.65;;;1.55;;
63320;SDS011;49449;48.800;9.534;2022-08-03T13:47:03;2.53;;;2.08;;
63320;SDS011;49449;48.800;9.534;2022-08-03T13:49:32;1.70;;;1.60;;
63320;SDS011;49449;48.800;9.534;2022-08-03T13:51:59;2.15;;;1.95;;
63320;SDS011;49449;48.800;9.534;2022-08-03T13:54:27;2.05;;;1.95;;
63320;SDS011;49449;48.800;9.534;2022-08-03T13:56:57;1.80;;;1.70;;
63320;SDS011;49449;48.800;9.534;2022-08-03T13:59:27;1.95;;;1.80;;
63320;SDS011;49449;48.800;9.534;2022-08-03T14:01:56;2.00;;;1.90;;
63320;SDS011;49449;48.800;9.534;2022-08-03T14:04:24;2.30;;;2.10;;
63320;SDS011;49449;48.800;9.534;2022-08-03T14:06:55;1.73;;;1.63;;
63320;SDS011;49449;48.800;9.534;2022-08-03T14:09:23;2.08;;;1.88;;
63320;SDS011;49449;48.800;9.534;2022-08-03T14:11:50;2.10;;;1.88;;
63320;SDS011;49449;48.800;9.534;2022-08-03T14:14:20;1.60;;;1.50;;
63320;SDS011;49449;48.800;9.534;2022-08-03T14:16:48;2.00;;;1.90;;
63320;SDS011;49449;48.800;9.534;2022-08-03T14:19:19;1.95;;;1.58;;
63320;SDS011;49449;48.800;9.534;2022-08-03T14:21:47;2.00;;;1.65;;
63320;SDS011;49449;48.800;9.534;2022-08-03T14:24:16;1.95;;;1.80;;
63320;SDS011;49449;48.800;9.534;2022-08-03T14:26:44;1.77;;;1.67;;
63320;SDS011;49449;48.800;9.534;2022-08-03T14:29:11;1.80;;;1.67;;
63320;SDS011;49449;48.800;9.534;2022-08-03T14:31:41;1.80;;;1.70;;
63320;SDS011;49449;48.800;9.534;2022-08-03T14:34:08;1.90;;;1.80;;
63320;SDS011;49449;48.800;9.534;2022-08-03T14:36:36;2.00;;;1.90;;
63320;SDS011;49449;48.800;9.534;2022-08-03T14:39:06;1.80;;;1.70;;
63320;SDS011;49449;48.800;9.534;2022-08-03T14:41:34;2.03;;;1.40;;
63320;SDS011;49449;48.800;9.534;2022-08-03T14:44:02;2.00;;;1.83;;
63320;SDS011;49449;48.800;9.534;2022-08-03T14:46:30;2.20;;;2.10;;
63320;SDS011;49449;48.800;9.534;2022-08-03T14:49:00;1.67;;;1.58;;
63320;SDS011;49449;48.800;9.534;2022-08-03T14:51:28;1.80;;;1.70;;
63320;SDS011;49449;48.800;9.534;2022-08-03T14:53:56;1.50;;;1.50;;
63320;SDS011;49449;48.800;9.534;2022-08-03T14:56:25;2.03;;;1.80;;
63320;SDS011;49449;48.800;9.534;2022-08-03T14:58:53;1.70;;;1.60;;
63320;SDS011;49449;48.800;9.534;2022-08-03T15:01:21;1.70;;;1.35;;
63320;SDS011;49449;48.800;9.534;2022-08-03T15:03:49;2.15;;;1.80;;
63320;SDS011;49449;48.800;9.534;2022-08-03T15:06:18;1.92;;;1.77;;
63320;SDS011;49449;48.800;9.534;2022-08-03T15:08:46;2.10;;;1.77;;
63320;SDS011;49449;48.800;9.534;2022-08-03T15:11:35;2.00;;;1.90;;
63320;SDS011;49449;48.800;9.534;2022-08-03T15:14:06;1.50;;;1.40;;
63320;SDS011;49449;48.800;9.534;2022-08-03T15:16:34;1.98;;;1.73;;
63320;SDS011;49449;48.800;9.534;2022-08-03T15:19:02;1.30;;;1.20;;
63320;SDS011;49449;48.800;9.534;2022-08-03T15:21:31;1.80;;;1.70;;
63320;SDS011;49449;48.800;9.534;2022-08-03T15:23:59;1.55;;;1.50;;
63320;SDS011;49449;48.800;9.534;2022-08-03T15:26:27;1.67;;;1.58;;
63320;SDS011;49449;48.800;9.534;2022-08-03T15:28:59;2.05;;;1.55;;
63320;SDS011;49449;48.800;9.534;2022-08-03T15:31:27;1.40;;;1.30;;